sensor_id;sensor_type;location;lat;lon;timestamp;P1;durP1;ratioP1;P2;durP2;ratioP2
37237;SDS011;23129;49.662;8.448;2022-10-14T00:01:24;37.00;;;19.05;;
37237;SDS011;23129;49.662;8.448;2022-10-14T00:03:53;26.30;;;15.13;;
37237;SDS011;23129;49.662;8.448;2022-10-14T00:06:22;35.33;;;16.23;;
37237;SDS011;23129;49.662;8.448;2022-10-14T00:08:52;35.53;;;16.77;;
37237;SDS011;23129;49.662;8.448;2022-10-14T00:11:22;39.00;;;16.88;;
37237;SDS011;23129;49.662;8.448;2022-10-14T00:13:52;32.13;;;16.70;;
37237;SDS011;23129;49.662;8.448;2022-10-14T00:16:22;32.38;;;17.17;;
37237;SDS011;23129;49.662;8.448;2022-10-14T00:18:54;33.28;;;16.38;;
37237;SDS011;23129;49.662;8.448;2022-10-14T00:21:24;31.85;;;15.70;;
37237;SDS011;23129;49.662;8.448;2022-10-14T00:23:54;31.75;;;17.27;;
37237;SDS011;23129;49.662;8.448;2022-10-14T00:26:25;35.22;;;16.55;;
37237;SDS011;23129;49.662;8.448;2022-10-14T00:28:56;37.28;;;15.70;;
37237;SDS011;23129;49.662;8.448;2022-10-14T00:31:31;41.83;;;16.73;;
37237;SDS011;23129;49.662;8.448;2022-10-14T00:33:59;41.95;;;17.10;;
37237;SDS011;23129;49.662;8.448;2022-10-14T00:36:28;38.13;;;17.58;;
37237;SDS011;23129;49.662;8.448;2022-10-14T00:38:57;35.13;;;17.40;;
37237;SDS011;23129;49.662;8.448;2022-10-14T00:41:26;37.03;;;16.33;;
37237;SDS011;23129;49.662;8.448;2022-10-14T00:43:58;32.78;;;15.48;;
37237;SDS011;23129;49.662;8.448;2022-10-14T00:46:31;27.80;;;15.15;;
37237;SDS011;23129;49.662;8.448;2022-10-14T00:49:05;46.45;;;16.50;;
37237;SDS011;23129;49.662;8.448;2022-10-14T00:51:39;34.92;;;17.58;;
37237;SDS011;23129;49.662;8.448;2022-10-14T00:54:10;35.42;;;16.92;;
37237;SDS011;23129;49.662;8.448;2022-10-14T00:56:43;30.45;;;16.30;;
37237;SDS011;23129;49.662;8.448;2022-10-14T00:59:14;31.52;;;16.60;;
37237;SDS011;23129;49.662;8.448;2022-10-14T01:01:44;35.30;;;16.45;;
37237;SDS011;23129;49.662;8.448;2022-10-14T01:04:13;31.50;;;17.40;;
37237;SDS011;23129;49.662;8.448;2022-10-14T01:06:41;36.78;;;15.80;;
37237;SDS011;23129;49.662;8.448;2022-10-14T01:09:20;33.72;;;16.58;;
37237;SDS011;23129;49.662;8.448;2022-10-14T01:11:57;36.35;;;16.20;;
37237;SDS011;23129;49.662;8.448;2022-10-14T01:14:57;32.75;;;15.30;;
37237;SDS011;23129;49.662;8.448;2022-10-14T01:17:38;31.80;;;15.60;;
37237;SDS011;23129;49.662;8.448;2022-10-14T01:20:25;32.95;;;17.20;;
37237;SDS011;23129;49.662;8.448;2022-10-14T01:23:19;35.28;;;15.70;;
37237;SDS011;23129;49.662;8.448;2022-10-14T01:26:39;28.17;;;15.13;;
37237;SDS011;23129;49.662;8.448;2022-10-14T01:29:43;28.15;;;14.20;;
37237;SDS011;23129;49.662;8.448;2022-10-14T01:32:35;30.35;;;17.50;;
37237;SDS011;23129;49.662;8.448;2022-10-14T01:35:13;30.67;;;16.45;;
37237;SDS011;23129;49.662;8.448;2022-10-14T01:37:56;36.60;;;16.30;;
37237;SDS011;23129;49.662;8.448;2022-10-14T01:40:31;30.08;;;13.88;;
37237;SDS011;23129;49.662;8.448;2022-10-14T01:43:03;34.53;;;14.98;;
37237;SDS011;23129;49.662;8.448;2022-10-14T01:45:35;29.15;;;15.00;;
37237;SDS011;23129;49.662;8.448;2022-10-14T01:48:08;29.35;;;14.90;;
37237;SDS011;23129;49.662;8.448;2022-10-14T01:50:39;31.00;;;14.63;;
37237;SDS011;23129;49.662;8.448;2022-10-14T01:53:13;27.52;;;15.05;;
37237;SDS011;23129;49.662;8.448;2022-10-14T01:55:46;30.02;;;15.30;;
37237;SDS011;23129;49.662;8.448;2022-10-14T01:58:16;37.00;;;14.10;;
37237;SDS011;23129;49.662;8.448;2022-10-14T02:00:49;32.65;;;16.00;;
37237;SDS011;23129;49.662;8.448;2022-10-14T02:03:18;34.95;;;15.45;;
37237;SDS011;23129;49.662;8.448;2022-10-14T02:05:47;29.00;;;15.35;;
37237;SDS011;23129;49.662;8.448;2022-10-14T02:08:27;30.80;;;14.25;;
37237;SDS011;23129;49.662;8.448;2022-10-14T02:11:04;33.30;;;15.63;;
37237;SDS011;23129;49.662;8.448;2022-10-14T02:13:44;31.17;;;15.80;;
37237;SDS011;23129;49.662;8.448;2022-10-14T02:16:33;33.22;;;15.10;;
37237;SDS011;23129;49.662;8.448;2022-10-14T02:19:08;38.83;;;16.60;;
37237;SDS011;23129;49.662;8.448;2022-10-14T02:21:50;33.95;;;16.58;;
37237;SDS011;23129;49.662;8.448;2022-10-14T02:24:25;31.15;;;15.27;;
37237;SDS011;23129;49.662;8.448;2022-10-14T02:26:59;47.65;;;15.45;;
37237;SDS011;23129;49.662;8.448;2022-10-14T02:29:31;26.53;;;14.03;;
37237;SDS011;23129;49.662;8.448;2022-10-14T02:32:03;30.50;;;14.57;;
37237;SDS011;23129;49.662;8.448;2022-10-14T02:34:33;33.22;;;16.55;;
37237;SDS011;23129;49.662;8.448;2022-10-14T02:37:07;32.58;;;17.33;;
37237;SDS011;23129;49.662;8.448;2022-10-14T02:39:37;35.65;;;17.70;;
37237;SDS011;23129;49.662;8.448;2022-10-14T02:42:10;43.70;;;15.65;;
37237;SDS011;23129;49.662;8.448;2022-10-14T02:44:50;26.38;;;15.55;;
37237;SDS011;23129;49.662;8.448;2022-10-14T02:47:22;37.88;;;16.73;;
37237;SDS011;23129;49.662;8.448;2022-10-14T02:49:51;33.97;;;15.65;;
37237;SDS011;23129;49.662;8.448;2022-10-14T02:52:19;39.15;;;15.32;;
37237;SDS011;23129;49.662;8.448;2022-10-14T02:54:51;28.05;;;14.27;;
37237;SDS011;23129;49.662;8.448;2022-10-14T02:57:20;36.50;;;17.02;;
37237;SDS011;23129;49.662;8.448;2022-10-14T02:59:48;26.58;;;15.25;;
37237;SDS011;23129;49.662;8.448;2022-10-14T03:02:17;36.92;;;15.38;;
37237;SDS011;23129;49.662;8.448;2022-10-14T03:04:48;26.23;;;13.52;;
37237;SDS011;23129;49.662;8.448;2022-10-14T03:07:16;30.50;;;14.23;;
37237;SDS011;23129;49.662;8.448;2022-10-14T03:09:49;38.65;;;14.98;;
37237;SDS011;23129;49.662;8.448;2022-10-14T03:12:17;29.10;;;15.75;;
37237;SDS011;23129;49.662;8.448;2022-10-14T03:14:47;34.10;;;15.30;;
37237;SDS011;23129;49.662;8.448;2022-10-14T03:17:17;39.50;;;17.08;;
37237;SDS011;23129;49.662;8.448;2022-10-14T03:19:49;29.65;;;14.23;;
37237;SDS011;23129;49.662;8.448;2022-10-14T03:22:17;37.65;;;14.57;;
37237;SDS011;23129;49.662;8.448;2022-10-14T03:24:46;38.20;;;16.10;;
37237;SDS011;23129;49.662;8.448;2022-10-14T03:27:33;30.33;;;13.48;;
37237;SDS011;23129;49.662;8.448;2022-10-14T03:30:07;29.50;;;13.60;;
37237;SDS011;23129;49.662;8.448;2022-10-14T03:32:43;39.47;;;15.10;;
37237;SDS011;23129;49.662;8.448;2022-10-14T03:35:21;39.42;;;15.65;;
37237;SDS011;23129;49.662;8.448;2022-10-14T03:37:53;26.48;;;13.77;;
37237;SDS011;23129;49.662;8.448;2022-10-14T03:40:27;30.70;;;14.20;;
37237;SDS011;23129;49.662;8.448;2022-10-14T03:42:58;34.40;;;15.70;;
37237;SDS011;23129;49.662;8.448;2022-10-14T03:45:35;34.17;;;14.73;;
37237;SDS011;23129;49.662;8.448;2022-10-14T03:48:04;29.65;;;15.20;;
37237;SDS011;23129;49.662;8.448;2022-10-14T03:50:38;31.95;;;14.40;;
37237;SDS011;23129;49.662;8.448;2022-10-14T03:53:07;42.55;;;16.38;;
37237;SDS011;23129;49.662;8.448;2022-10-14T03:55:37;32.92;;;14.15;;
37237;SDS011;23129;49.662;8.448;2022-10-14T03:58:07;34.08;;;16.02;;
37237;SDS011;23129;49.662;8.448;2022-10-14T04:00:39;47.75;;;19.27;;
37237;SDS011;23129;49.662;8.448;2022-10-14T04:03:20;42.50;;;16.25;;
37237;SDS011;23129;49.662;8.448;2022-10-14T04:05:50;31.02;;;16.00;;
37237;SDS011;23129;49.662;8.448;2022-10-14T04:08:21;37.05;;;15.75;;
37237;SDS011;23129;49.662;8.448;2022-10-14T04:10:55;34.13;;;16.98;;
37237;SDS011;23129;49.662;8.448;2022-10-14T04:13:28;35.25;;;16.85;;
37237;SDS011;23129;49.662;8.448;2022-10-14T04:15:56;37.00;;;17.38;;
37237;SDS011;23129;49.662;8.448;2022-10-14T04:18:35;47.55;;;18.25;;
37237;SDS011;23129;49.662;8.448;2022-10-14T04:21:06;31.40;;;16.10;;
37237;SDS011;23129;49.662;8.448;2022-10-14T04:23:40;40.28;;;17.85;;
37237;SDS011;23129;49.662;8.448;2022-10-14T04:26:14;38.92;;;16.33;;
37237;SDS011;23129;49.662;8.448;2022-10-14T04:28:44;39.92;;;16.55;;
37237;SDS011;23129;49.662;8.448;2022-10-14T04:31:26;35.20;;;15.77;;
37237;SDS011;23129;49.662;8.448;2022-10-14T04:33:59;38.40;;;15.68;;
37237;SDS011;23129;49.662;8.448;2022-10-14T04:36:35;40.87;;;18.23;;
37237;SDS011;23129;49.662;8.448;2022-10-14T04:39:17;36.15;;;15.77;;
37237;SDS011;23129;49.662;8.448;2022-10-14T04:41:46;33.95;;;17.02;;
37237;SDS011;23129;49.662;8.448;2022-10-14T04:44:18;26.92;;;15.10;;
37237;SDS011;23129;49.662;8.448;2022-10-14T04:46:49;29.42;;;16.40;;
37237;SDS011;23129;49.662;8.448;2022-10-14T04:49:21;32.83;;;15.23;;
37237;SDS011;23129;49.662;8.448;2022-10-14T04:52:02;37.10;;;17.38;;
37237;SDS011;23129;49.662;8.448;2022-10-14T04:54:39;36.10;;;16.50;;
37237;SDS011;23129;49.662;8.448;2022-10-14T04:57:08;37.75;;;16.27;;
37237;SDS011;23129;49.662;8.448;2022-10-14T04:59:38;33.33;;;15.82;;
37237;SDS011;23129;49.662;8.448;2022-10-14T05:02:18;41.60;;;16.13;;
37237;SDS011;23129;49.662;8.448;2022-10-14T05:04:56;31.75;;;16.27;;
37237;SDS011;23129;49.662;8.448;2022-10-14T05:07:28;42.53;;;17.80;;
37237;SDS011;23129;49.662;8.448;2022-10-14T05:10:07;38.10;;;16.65;;
37237;SDS011;23129;49.662;8.448;2022-10-14T05:12:40;30.80;;;16.33;;
37237;SDS011;23129;49.662;8.448;2022-10-14T05:15:09;32.55;;;16.42;;
37237;SDS011;23129;49.662;8.448;2022-10-14T05:17:51;36.58;;;17.33;;
37237;SDS011;23129;49.662;8.448;2022-10-14T05:20:27;36.45;;;18.98;;
37237;SDS011;23129;49.662;8.448;2022-10-14T05:22:58;35.47;;;17.02;;
37237;SDS011;23129;49.662;8.448;2022-10-14T05:25:26;37.75;;;17.35;;
37237;SDS011;23129;49.662;8.448;2022-10-14T05:27:55;34.28;;;16.48;;
37237;SDS011;23129;49.662;8.448;2022-10-14T05:30:24;40.50;;;16.02;;
37237;SDS011;23129;49.662;8.448;2022-10-14T05:33:00;35.17;;;18.08;;
37237;SDS011;23129;49.662;8.448;2022-10-14T05:35:29;43.88;;;17.95;;
37237;SDS011;23129;49.662;8.448;2022-10-14T05:38:20;38.65;;;16.77;;
37237;SDS011;23129;49.662;8.448;2022-10-14T05:40:51;46.05;;;18.40;;
37237;SDS011;23129;49.662;8.448;2022-10-14T05:43:20;41.45;;;17.25;;
37237;SDS011;23129;49.662;8.448;2022-10-14T05:45:57;42.63;;;18.27;;
37237;SDS011;23129;49.662;8.448;2022-10-14T05:48:28;31.73;;;17.45;;
37237;SDS011;23129;49.662;8.448;2022-10-14T05:50:57;48.67;;;19.63;;
37237;SDS011;23129;49.662;8.448;2022-10-14T05:53:32;38.28;;;19.05;;
37237;SDS011;23129;49.662;8.448;2022-10-14T05:56:05;48.30;;;17.75;;
37237;SDS011;23129;49.662;8.448;2022-10-14T05:58:38;41.72;;;19.30;;
37237;SDS011;23129;49.662;8.448;2022-10-14T06:01:08;38.95;;;20.70;;
37237;SDS011;23129;49.662;8.448;2022-10-14T06:03:40;39.60;;;18.70;;
37237;SDS011;23129;49.662;8.448;2022-10-14T06:06:10;46.03;;;18.42;;
37237;SDS011;23129;49.662;8.448;2022-10-14T06:08:42;39.67;;;19.90;;
37237;SDS011;23129;49.662;8.448;2022-10-14T06:11:11;43.67;;;19.70;;
37237;SDS011;23129;49.662;8.448;2022-10-14T06:13:39;43.72;;;19.67;;
37237;SDS011;23129;49.662;8.448;2022-10-14T06:16:08;52.63;;;19.52;;
37237;SDS011;23129;49.662;8.448;2022-10-14T06:18:37;48.97;;;20.75;;
37237;SDS011;23129;49.662;8.448;2022-10-14T06:21:06;42.13;;;20.23;;
37237;SDS011;23129;49.662;8.448;2022-10-14T06:23:35;44.72;;;19.27;;
37237;SDS011;23129;49.662;8.448;2022-10-14T06:26:06;38.88;;;18.90;;
37237;SDS011;23129;49.662;8.448;2022-10-14T06:28:35;44.85;;;18.00;;
37237;SDS011;23129;49.662;8.448;2022-10-14T06:31:06;35.88;;;17.77;;
37237;SDS011;23129;49.662;8.448;2022-10-14T06:33:35;36.72;;;17.83;;
37237;SDS011;23129;49.662;8.448;2022-10-14T06:36:04;37.83;;;20.13;;
37237;SDS011;23129;49.662;8.448;2022-10-14T06:38:33;40.63;;;18.95;;
37237;SDS011;23129;49.662;8.448;2022-10-14T06:41:02;43.88;;;19.52;;
37237;SDS011;23129;49.662;8.448;2022-10-14T06:43:31;47.25;;;19.45;;
37237;SDS011;23129;49.662;8.448;2022-10-14T06:46:00;40.85;;;18.58;;
37237;SDS011;23129;49.662;8.448;2022-10-14T06:48:29;36.78;;;18.65;;
37237;SDS011;23129;49.662;8.448;2022-10-14T06:50:58;51.97;;;19.30;;
37237;SDS011;23129;49.662;8.448;2022-10-14T06:53:27;46.92;;;18.30;;
37237;SDS011;23129;49.662;8.448;2022-10-14T06:55:57;49.28;;;20.02;;
37237;SDS011;23129;49.662;8.448;2022-10-14T06:58:28;32.53;;;16.75;;
37237;SDS011;23129;49.662;8.448;2022-10-14T07:01:01;40.45;;;19.15;;
37237;SDS011;23129;49.662;8.448;2022-10-14T07:03:32;38.70;;;17.55;;
37237;SDS011;23129;49.662;8.448;2022-10-14T07:06:03;40.30;;;17.73;;
37237;SDS011;23129;49.662;8.448;2022-10-14T07:08:32;42.25;;;18.70;;
37237;SDS011;23129;49.662;8.448;2022-10-14T07:11:02;35.45;;;17.10;;
37237;SDS011;23129;49.662;8.448;2022-10-14T07:13:31;37.88;;;17.77;;
37237;SDS011;23129;49.662;8.448;2022-10-14T07:16:01;40.47;;;17.83;;
37237;SDS011;23129;49.662;8.448;2022-10-14T07:18:30;39.15;;;17.75;;
37237;SDS011;23129;49.662;8.448;2022-10-14T07:21:03;37.30;;;16.23;;
37237;SDS011;23129;49.662;8.448;2022-10-14T07:23:32;34.78;;;14.88;;
37237;SDS011;23129;49.662;8.448;2022-10-14T07:26:00;32.45;;;16.63;;
37237;SDS011;23129;49.662;8.448;2022-10-14T07:28:30;34.47;;;13.98;;
37237;SDS011;23129;49.662;8.448;2022-10-14T07:30:59;33.22;;;15.57;;
37237;SDS011;23129;49.662;8.448;2022-10-14T07:33:33;34.47;;;16.33;;
37237;SDS011;23129;49.662;8.448;2022-10-14T07:36:03;35.00;;;15.98;;
37237;SDS011;23129;49.662;8.448;2022-10-14T07:38:35;34.20;;;15.13;;
37237;SDS011;23129;49.662;8.448;2022-10-14T07:41:04;31.73;;;15.52;;
37237;SDS011;23129;49.662;8.448;2022-10-14T07:43:42;39.35;;;15.63;;
37237;SDS011;23129;49.662;8.448;2022-10-14T07:46:12;36.28;;;16.70;;
37237;SDS011;23129;49.662;8.448;2022-10-14T07:48:42;34.72;;;16.40;;
37237;SDS011;23129;49.662;8.448;2022-10-14T07:51:22;35.90;;;16.10;;
37237;SDS011;23129;49.662;8.448;2022-10-14T07:53:51;33.92;;;16.30;;
37237;SDS011;23129;49.662;8.448;2022-10-14T07:56:20;32.90;;;16.92;;
37237;SDS011;23129;49.662;8.448;2022-10-14T07:58:49;30.17;;;12.68;;
37237;SDS011;23129;49.662;8.448;2022-10-14T08:01:19;28.75;;;13.52;;
37237;SDS011;23129;49.662;8.448;2022-10-14T08:03:49;26.13;;;12.35;;
37237;SDS011;23129;49.662;8.448;2022-10-14T08:06:18;22.38;;;13.23;;
37237;SDS011;23129;49.662;8.448;2022-10-14T08:08:47;27.08;;;11.75;;
37237;SDS011;23129;49.662;8.448;2022-10-14T08:11:16;20.20;;;11.60;;
37237;SDS011;23129;49.662;8.448;2022-10-14T08:13:47;19.58;;;10.80;;
37237;SDS011;23129;49.662;8.448;2022-10-14T08:16:16;20.88;;;11.55;;
37237;SDS011;23129;49.662;8.448;2022-10-14T08:18:49;26.42;;;11.50;;
37237;SDS011;23129;49.662;8.448;2022-10-14T08:21:18;35.50;;;11.70;;
37237;SDS011;23129;49.662;8.448;2022-10-14T08:23:47;19.70;;;11.13;;
37237;SDS011;23129;49.662;8.448;2022-10-14T08:26:17;22.58;;;12.02;;
37237;SDS011;23129;49.662;8.448;2022-10-14T08:28:48;23.27;;;12.57;;
37237;SDS011;23129;49.662;8.448;2022-10-14T08:31:19;28.20;;;11.65;;
37237;SDS011;23129;49.662;8.448;2022-10-14T08:33:48;26.20;;;12.35;;
37237;SDS011;23129;49.662;8.448;2022-10-14T08:36:18;24.02;;;12.88;;
37237;SDS011;23129;49.662;8.448;2022-10-14T08:38:47;24.73;;;10.60;;
37237;SDS011;23129;49.662;8.448;2022-10-14T08:44:24;23.33;;;10.20;;
37237;SDS011;23129;49.662;8.448;2022-10-14T08:46:57;37.78;;;11.30;;
37237;SDS011;23129;49.662;8.448;2022-10-14T08:49:28;22.98;;;11.75;;
37237;SDS011;23129;49.662;8.448;2022-10-14T08:52:02;20.13;;;11.13;;
37237;SDS011;23129;49.662;8.448;2022-10-14T08:54:38;28.50;;;10.63;;
37237;SDS011;23129;49.662;8.448;2022-10-14T08:57:11;22.40;;;11.50;;
37237;SDS011;23129;49.662;8.448;2022-10-14T08:59:44;25.40;;;11.85;;
37237;SDS011;23129;49.662;8.448;2022-10-14T09:02:17;24.23;;;11.32;;
37237;SDS011;23129;49.662;8.448;2022-10-14T09:04:57;27.43;;;11.07;;
37237;SDS011;23129;49.662;8.448;2022-10-14T09:07:27;24.23;;;10.95;;
37237;SDS011;23129;49.662;8.448;2022-10-14T09:09:59;25.77;;;10.38;;
37237;SDS011;23129;49.662;8.448;2022-10-14T09:15:04;19.38;;;10.48;;
37237;SDS011;23129;49.662;8.448;2022-10-14T09:17:45;19.45;;;10.88;;
37237;SDS011;23129;49.662;8.448;2022-10-14T09:20:19;19.38;;;10.20;;
37237;SDS011;23129;49.662;8.448;2022-10-14T09:22:53;20.52;;;9.57;;
37237;SDS011;23129;49.662;8.448;2022-10-14T09:25:33;23.83;;;10.32;;
37237;SDS011;23129;49.662;8.448;2022-10-14T09:28:03;19.73;;;9.43;;
37237;SDS011;23129;49.662;8.448;2022-10-14T09:30:33;16.73;;;9.98;;
37237;SDS011;23129;49.662;8.448;2022-10-14T09:33:05;24.00;;;9.55;;
37237;SDS011;23129;49.662;8.448;2022-10-14T09:35:38;24.20;;;9.52;;
37237;SDS011;23129;49.662;8.448;2022-10-14T09:38:10;27.52;;;9.48;;
37237;SDS011;23129;49.662;8.448;2022-10-14T09:40:39;19.98;;;9.50;;
37237;SDS011;23129;49.662;8.448;2022-10-14T09:43:14;15.20;;;8.40;;
37237;SDS011;23129;49.662;8.448;2022-10-14T09:45:46;13.85;;;8.23;;
37237;SDS011;23129;49.662;8.448;2022-10-14T09:48:30;12.07;;;7.03;;
37237;SDS011;23129;49.662;8.448;2022-10-14T09:51:04;15.73;;;7.25;;
37237;SDS011;23129;49.662;8.448;2022-10-14T09:53:36;12.10;;;6.97;;
37237;SDS011;23129;49.662;8.448;2022-10-14T09:56:10;12.98;;;7.10;;
37237;SDS011;23129;49.662;8.448;2022-10-14T09:58:41;11.10;;;7.80;;
37237;SDS011;23129;49.662;8.448;2022-10-14T10:01:13;20.00;;;7.40;;
37237;SDS011;23129;49.662;8.448;2022-10-14T10:03:46;14.82;;;6.32;;
37237;SDS011;23129;49.662;8.448;2022-10-14T10:06:17;17.17;;;7.15;;
37237;SDS011;23129;49.662;8.448;2022-10-14T10:08:53;15.00;;;7.35;;
37237;SDS011;23129;49.662;8.448;2022-10-14T10:11:26;11.80;;;6.38;;
37237;SDS011;23129;49.662;8.448;2022-10-14T10:13:56;16.88;;;5.72;;
37237;SDS011;23129;49.662;8.448;2022-10-14T10:16:41;14.05;;;5.95;;
37237;SDS011;23129;49.662;8.448;2022-10-14T10:19:24;18.75;;;7.18;;
37237;SDS011;23129;49.662;8.448;2022-10-14T10:21:55;8.57;;;6.57;;
37237;SDS011;23129;49.662;8.448;2022-10-14T10:24:48;12.77;;;6.53;;
37237;SDS011;23129;49.662;8.448;2022-10-14T10:27:19;17.05;;;6.18;;
37237;SDS011;23129;49.662;8.448;2022-10-14T10:29:51;18.02;;;6.82;;
37237;SDS011;23129;49.662;8.448;2022-10-14T10:32:22;10.88;;;6.35;;
37237;SDS011;23129;49.662;8.448;2022-10-14T10:35:03;13.15;;;6.65;;
37237;SDS011;23129;49.662;8.448;2022-10-14T10:37:43;18.60;;;6.70;;
37237;SDS011;23129;49.662;8.448;2022-10-14T10:40:29;11.65;;;6.07;;
37237;SDS011;23129;49.662;8.448;2022-10-14T10:46:02;10.95;;;6.18;;
37237;SDS011;23129;49.662;8.448;2022-10-14T10:49:01;18.70;;;5.97;;
37237;SDS011;23129;49.662;8.448;2022-10-14T10:51:39;14.98;;;6.22;;
37237;SDS011;23129;49.662;8.448;2022-10-14T10:54:21;13.43;;;5.90;;
37237;SDS011;23129;49.662;8.448;2022-10-14T10:56:58;8.25;;;5.75;;
37237;SDS011;23129;49.662;8.448;2022-10-14T10:59:39;15.65;;;6.18;;
37237;SDS011;23129;49.662;8.448;2022-10-14T11:02:42;13.43;;;6.40;;
37237;SDS011;23129;49.662;8.448;2022-10-14T11:05:35;11.63;;;5.65;;
37237;SDS011;23129;49.662;8.448;2022-10-14T11:08:20;11.23;;;6.57;;
37237;SDS011;23129;49.662;8.448;2022-10-14T11:11:38;16.13;;;6.05;;
37237;SDS011;23129;49.662;8.448;2022-10-14T11:14:56;17.98;;;6.50;;
37237;SDS011;23129;49.662;8.448;2022-10-14T11:17:47;13.40;;;6.73;;
37237;SDS011;23129;49.662;8.448;2022-10-14T11:23:03;12.55;;;6.18;;
37237;SDS011;23129;49.662;8.448;2022-10-14T11:25:51;20.38;;;7.30;;
37237;SDS011;23129;49.662;8.448;2022-10-14T11:28:27;17.75;;;7.88;;
37237;SDS011;23129;49.662;8.448;2022-10-14T11:31:07;14.45;;;6.95;;
37237;SDS011;23129;49.662;8.448;2022-10-14T11:33:56;9.45;;;6.88;;
37237;SDS011;23129;49.662;8.448;2022-10-14T11:36:59;14.82;;;6.18;;
37237;SDS011;23129;49.662;8.448;2022-10-14T11:39:41;19.95;;;7.07;;
37237;SDS011;23129;49.662;8.448;2022-10-14T11:42:24;15.23;;;7.20;;
37237;SDS011;23129;49.662;8.448;2022-10-14T11:45:06;17.40;;;7.05;;
37237;SDS011;23129;49.662;8.448;2022-10-14T11:47:56;20.33;;;7.43;;
37237;SDS011;23129;49.662;8.448;2022-10-14T11:50:37;16.00;;;8.32;;
37237;SDS011;23129;49.662;8.448;2022-10-14T11:53:10;15.27;;;7.40;;
37237;SDS011;23129;49.662;8.448;2022-10-14T11:55:44;13.82;;;7.85;;
37237;SDS011;23129;49.662;8.448;2022-10-14T11:58:23;16.48;;;7.95;;
37237;SDS011;23129;49.662;8.448;2022-10-14T12:00:54;17.95;;;8.43;;
37237;SDS011;23129;49.662;8.448;2022-10-14T12:03:28;11.23;;;7.53;;
37237;SDS011;23129;49.662;8.448;2022-10-14T12:08:46;17.08;;;8.65;;
37237;SDS011;23129;49.662;8.448;2022-10-14T12:11:23;17.92;;;8.75;;
37237;SDS011;23129;49.662;8.448;2022-10-14T12:14:01;26.23;;;9.75;;
37237;SDS011;23129;49.662;8.448;2022-10-14T12:16:36;17.00;;;8.65;;
37237;SDS011;23129;49.662;8.448;2022-10-14T12:19:10;25.13;;;9.40;;
37237;SDS011;23129;49.662;8.448;2022-10-14T12:21:45;12.93;;;8.23;;
37237;SDS011;23129;49.662;8.448;2022-10-14T12:24:19;14.15;;;8.60;;
37237;SDS011;23129;49.662;8.448;2022-10-14T12:26:51;21.35;;;8.25;;
37237;SDS011;23129;49.662;8.448;2022-10-14T12:29:25;17.10;;;8.23;;
37237;SDS011;23129;49.662;8.448;2022-10-14T12:32:05;14.10;;;8.15;;
37237;SDS011;23129;49.662;8.448;2022-10-14T12:34:47;16.80;;;8.02;;
37237;SDS011;23129;49.662;8.448;2022-10-14T12:40:24;22.70;;;8.77;;
37237;SDS011;23129;49.662;8.448;2022-10-14T12:45:53;14.82;;;8.50;;
37237;SDS011;23129;49.662;8.448;2022-10-14T12:48:29;19.70;;;8.43;;
37237;SDS011;23129;49.662;8.448;2022-10-14T12:51:07;17.70;;;8.27;;
37237;SDS011;23129;49.662;8.448;2022-10-14T12:53:46;14.40;;;7.55;;
37237;SDS011;23129;49.662;8.448;2022-10-14T12:56:31;13.82;;;8.43;;
37237;SDS011;23129;49.662;8.448;2022-10-14T12:59:04;11.98;;;7.78;;
37237;SDS011;23129;49.662;8.448;2022-10-14T13:01:37;10.73;;;6.97;;
37237;SDS011;23129;49.662;8.448;2022-10-14T13:04:13;14.82;;;5.68;;
37237;SDS011;23129;49.662;8.448;2022-10-14T13:10:25;16.45;;;5.63;;
37237;SDS011;23129;49.662;8.448;2022-10-14T13:19:53;5.30;;;4.32;;
37237;SDS011;23129;49.662;8.448;2022-10-14T13:22:38;12.68;;;5.03;;
37237;SDS011;23129;49.662;8.448;2022-10-14T13:25:16;7.70;;;4.85;;
37237;SDS011;23129;49.662;8.448;2022-10-14T13:27:53;31.75;;;5.95;;
37237;SDS011;23129;49.662;8.448;2022-10-14T13:30:35;10.73;;;5.00;;
37237;SDS011;23129;49.662;8.448;2022-10-14T13:33:17;11.73;;;4.65;;
37237;SDS011;23129;49.662;8.448;2022-10-14T13:35:56;12.48;;;5.70;;
37237;SDS011;23129;49.662;8.448;2022-10-14T13:38:35;6.63;;;4.88;;
37237;SDS011;23129;49.662;8.448;2022-10-14T13:41:10;11.10;;;5.63;;
37237;SDS011;23129;49.662;8.448;2022-10-14T13:43:43;7.72;;;5.35;;
37237;SDS011;23129;49.662;8.448;2022-10-14T13:46:13;9.95;;;5.80;;
37237;SDS011;23129;49.662;8.448;2022-10-14T13:48:49;9.95;;;5.68;;
37237;SDS011;23129;49.662;8.448;2022-10-14T13:51:26;11.68;;;5.78;;
37237;SDS011;23129;49.662;8.448;2022-10-14T13:54:13;11.65;;;5.00;;
37237;SDS011;23129;49.662;8.448;2022-10-14T13:56:55;15.32;;;5.53;;
37237;SDS011;23129;49.662;8.448;2022-10-14T13:59:47;8.77;;;4.53;;
37237;SDS011;23129;49.662;8.448;2022-10-14T14:02:39;12.15;;;4.50;;
37237;SDS011;23129;49.662;8.448;2022-10-14T14:05:21;9.63;;;4.35;;
37237;SDS011;23129;49.662;8.448;2022-10-14T14:07:50;9.38;;;4.60;;
37237;SDS011;23129;49.662;8.448;2022-10-14T14:10:39;5.63;;;4.25;;
37237;SDS011;23129;49.662;8.448;2022-10-14T14:13:47;9.77;;;4.28;;
37237;SDS011;23129;49.662;8.448;2022-10-14T14:16:28;6.95;;;4.60;;
37237;SDS011;23129;49.662;8.448;2022-10-14T14:19:00;6.45;;;4.20;;
37237;SDS011;23129;49.662;8.448;2022-10-14T14:21:37;11.02;;;3.70;;
37237;SDS011;23129;49.662;8.448;2022-10-14T14:24:09;7.57;;;4.13;;
37237;SDS011;23129;49.662;8.448;2022-10-14T14:26:51;8.30;;;4.32;;
37237;SDS011;23129;49.662;8.448;2022-10-14T14:29:25;10.57;;;4.53;;
37237;SDS011;23129;49.662;8.448;2022-10-14T14:31:56;11.68;;;4.18;;
37237;SDS011;23129;49.662;8.448;2022-10-14T14:34:33;11.60;;;4.13;;
37237;SDS011;23129;49.662;8.448;2022-10-14T14:37:09;11.05;;;5.18;;
37237;SDS011;23129;49.662;8.448;2022-10-14T14:40:03;13.98;;;4.63;;
37237;SDS011;23129;49.662;8.448;2022-10-14T14:42:41;8.40;;;4.13;;
37237;SDS011;23129;49.662;8.448;2022-10-14T14:45:13;8.55;;;4.93;;
37237;SDS011;23129;49.662;8.448;2022-10-14T14:47:48;10.57;;;4.07;;
37237;SDS011;23129;49.662;8.448;2022-10-14T14:50:25;8.27;;;4.85;;
37237;SDS011;23129;49.662;8.448;2022-10-14T14:52:59;14.40;;;4.97;;
37237;SDS011;23129;49.662;8.448;2022-10-14T14:55:38;5.45;;;4.05;;
37237;SDS011;23129;49.662;8.448;2022-10-14T15:01:00;5.47;;;4.25;;
37237;SDS011;23129;49.662;8.448;2022-10-14T15:03:31;7.28;;;4.40;;
37237;SDS011;23129;49.662;8.448;2022-10-14T15:06:35;9.88;;;4.72;;
37237;SDS011;23129;49.662;8.448;2022-10-14T15:09:09;11.18;;;4.45;;
37237;SDS011;23129;49.662;8.448;2022-10-14T15:11:47;9.57;;;4.07;;
37237;SDS011;23129;49.662;8.448;2022-10-14T15:14:27;10.90;;;5.28;;
37237;SDS011;23129;49.662;8.448;2022-10-14T15:17:00;13.93;;;4.75;;
37237;SDS011;23129;49.662;8.448;2022-10-14T15:19:34;5.55;;;4.38;;
37237;SDS011;23129;49.662;8.448;2022-10-14T15:22:09;9.45;;;5.35;;
37237;SDS011;23129;49.662;8.448;2022-10-14T15:25:03;9.02;;;5.22;;
37237;SDS011;23129;49.662;8.448;2022-10-14T15:27:38;8.43;;;5.30;;
37237;SDS011;23129;49.662;8.448;2022-10-14T15:30:19;5.60;;;4.50;;
37237;SDS011;23129;49.662;8.448;2022-10-14T15:33:00;7.10;;;4.95;;
37237;SDS011;23129;49.662;8.448;2022-10-14T15:35:39;10.60;;;4.85;;
37237;SDS011;23129;49.662;8.448;2022-10-14T15:38:12;8.20;;;4.65;;
37237;SDS011;23129;49.662;8.448;2022-10-14T15:40:45;7.00;;;4.15;;
37237;SDS011;23129;49.662;8.448;2022-10-14T15:43:19;7.13;;;4.05;;
37237;SDS011;23129;49.662;8.448;2022-10-14T15:45:56;6.45;;;4.97;;
37237;SDS011;23129;49.662;8.448;2022-10-14T15:48:45;6.45;;;3.80;;